createdAt,value
2018-05-26T00:00:28.529Z,8.47
2018-05-26T00:02:54.801Z,8.23
2018-05-26T00:05:21.113Z,9.30
2018-05-26T00:07:48.163Z,9.00
2018-05-26T00:10:15.191Z,7.87
2018-05-26T00:12:41.473Z,8.43
2018-05-26T00:15:07.775Z,8.43
2018-05-26T00:17:34.075Z,9.07
2018-05-26T00:20:00.372Z,9.03
2018-05-26T00:22:26.610Z,9.40
2018-05-26T00:24:53.640Z,9.57
2018-05-26T00:27:19.910Z,8.53
2018-05-26T00:29:46.193Z,9.73
2018-05-26T00:32:12.470Z,9.83
2018-05-26T00:34:39.466Z,9.10
2018-05-26T00:37:05.746Z,9.37
2018-05-26T00:39:32.765Z,9.53
2018-05-26T00:41:59.048Z,9.23
2018-05-26T00:44:26.082Z,10.40
2018-05-26T00:46:52.337Z,10.83
2018-05-26T00:49:19.338Z,10.23
2018-05-26T00:51:45.640Z,9.97
2018-05-26T00:54:11.927Z,10.93
2018-05-26T00:56:39.695Z,10.03
2018-05-26T00:59:06.002Z,10.07
2018-05-26T01:01:32.342Z,10.43
2018-05-26T01:03:58.636Z,10.37
2018-05-26T01:06:25.645Z,10.67
2018-05-26T01:08:51.973Z,11.47
2018-05-26T01:11:18.313Z,11.03
2018-05-26T01:13:44.593Z,11.10
2018-05-26T01:16:11.646Z,11.77
2018-05-26T01:18:38.667Z,11.77
2018-05-26T01:21:05.004Z,11.13
2018-05-26T01:23:31.423Z,11.30
2018-05-26T01:25:57.729Z,11.70
2018-05-26T01:28:24.033Z,10.93
2018-05-26T01:30:50.343Z,10.30
2018-05-26T01:33:16.662Z,11.03
2018-05-26T01:35:42.937Z,9.63
2018-05-26T01:38:09.921Z,10.20
2018-05-26T01:40:36.238Z,10.37
2018-05-26T01:43:03.253Z,10.73
2018-05-26T01:45:29.541Z,10.33
2018-05-26T01:47:59.546Z,10.37
2018-05-26T01:50:26.665Z,11.07
2018-05-26T01:52:52.954Z,11.03
2018-05-26T01:55:19.969Z,11.17
2018-05-26T01:57:46.276Z,10.43
2018-05-26T02:00:12.565Z,10.53
2018-05-26T02:02:39.577Z,10.27
2018-05-26T02:05:05.870Z,10.50
2018-05-26T02:07:32.898Z,10.57
2018-05-26T02:09:59.925Z,11.23
2018-05-26T02:12:26.227Z,10.67
2018-05-26T02:14:52.462Z,10.97
2018-05-26T02:17:18.750Z,12.37
2018-05-26T02:19:44.976Z,12.40
2018-05-26T02:22:11.262Z,10.10
2018-05-26T02:24:37.624Z,10.97
2018-05-26T02:27:03.945Z,7.70
2018-05-26T02:29:30.260Z,11.87
2018-05-26T02:31:56.550Z,11.83
2018-05-26T02:34:22.861Z,12.43
2018-05-26T02:36:49.194Z,11.63
2018-05-26T02:39:15.534Z,11.90
2018-05-26T02:41:41.852Z,12.57
2018-05-26T02:44:08.148Z,10.00
2018-05-26T02:46:34.470Z,12.13
2018-05-26T02:49:00.743Z,12.53
2018-05-26T02:51:27.037Z,11.10
2018-05-26T02:53:53.346Z,13.43
2018-05-26T02:56:19.616Z,11.50
2018-05-26T02:58:45.905Z,12.97
2018-05-26T03:01:12.202Z,10.20
2018-05-26T03:03:39.979Z,12.47
2018-05-26T03:06:12.477Z,12.80
2018-05-26T03:08:45.741Z,12.90
2018-05-26T03:11:18.083Z,12.97
2018-05-26T03:13:50.365Z,14.00
2018-05-26T03:16:19.526Z,13.57
2018-05-26T03:18:45.837Z,12.63
2018-05-26T03:21:12.104Z,12.80
2018-05-26T03:23:38.372Z,14.10
2018-05-26T03:26:04.670Z,14.10
2018-05-26T03:28:31.674Z,13.53
2018-05-26T03:30:57.924Z,13.60
2018-05-26T03:33:24.191Z,12.77
2018-05-26T03:35:51.198Z,12.13
2018-05-26T03:38:17.505Z,11.97
2018-05-26T03:40:43.811Z,13.93
2018-05-26T03:43:10.813Z,13.13
2018-05-26T03:45:37.097Z,13.47
2018-05-26T03:48:04.120Z,12.77
2018-05-26T03:50:31.145Z,13.27
2018-05-26T03:52:57.397Z,14.30
2018-05-26T03:55:42.986Z,13.60
2018-05-26T03:58:27.590Z,13.67
2018-05-26T04:00:53.853Z,14.07
2018-05-26T04:03:20.144Z,13.30
2018-05-26T04:05:47.186Z,15.10
2018-05-26T04:08:14.993Z,14.37
2018-05-26T04:10:41.228Z,14.70
2018-05-26T04:13:07.525Z,15.13
2018-05-26T04:15:34.561Z,14.10
2018-05-26T04:18:00.844Z,14.63
2018-05-26T04:20:27.176Z,13.87
2018-05-26T04:22:53.421Z,13.40
2018-05-26T04:25:19.735Z,14.73
2018-05-26T04:27:46.765Z,13.37
2018-05-26T04:30:13.029Z,12.63
2018-05-26T04:32:39.334Z,14.10
2018-05-26T04:35:06.337Z,14.20
2018-05-26T04:37:32.577Z,13.23
2018-05-26T04:39:58.853Z,13.60
2018-05-26T04:42:25.109Z,13.37
2018-05-26T04:44:52.157Z,12.67
2018-05-26T04:47:19.205Z,12.73
2018-05-26T04:49:46.249Z,12.10
2018-05-26T04:52:12.534Z,12.67
2018-05-26T04:54:38.797Z,12.00
2018-05-26T04:57:05.044Z,11.90
2018-05-26T04:59:31.337Z,13.20
2018-05-26T05:01:57.617Z,13.27
2018-05-26T05:04:23.920Z,12.70
2018-05-26T05:06:50.218Z,11.30
2018-05-26T05:09:17.257Z,10.40
2018-05-26T05:11:43.550Z,9.97
2018-05-26T05:14:09.880Z,10.07
2018-05-26T05:16:36.213Z,9.13
2018-05-26T05:19:02.477Z,9.37
2018-05-26T05:21:28.758Z,10.43
2018-05-26T05:23:55.786Z,9.73
2018-05-26T05:26:22.078Z,9.47
2018-05-26T05:28:48.373Z,8.33
2018-05-26T05:31:15.366Z,8.03
2018-05-26T05:33:41.633Z,8.13
2018-05-26T05:36:07.890Z,8.50
2018-05-26T05:38:34.141Z,7.77
2018-05-26T05:41:01.162Z,7.50
2018-05-26T05:43:28.185Z,7.70
2018-05-26T05:45:54.437Z,7.90
2018-05-26T05:48:20.733Z,8.93
2018-05-26T05:50:47.003Z,8.73
2018-05-26T05:53:13.277Z,8.30
2018-05-26T05:55:40.307Z,8.00
2018-05-26T05:58:06.528Z,8.47
2018-05-26T06:00:32.819Z,7.50
2018-05-26T06:02:59.097Z,8.33
2018-05-26T06:05:25.388Z,7.93
2018-05-26T06:07:52.386Z,8.33
2018-05-26T06:10:18.653Z,7.33
2018-05-26T06:12:44.954Z,7.37
2018-05-26T06:15:11.260Z,8.00
2018-05-26T06:17:37.538Z,7.60
2018-05-26T06:20:03.863Z,7.83
2018-05-26T06:22:30.137Z,7.80
2018-05-26T06:24:57.198Z,7.40
2018-05-26T06:27:23.501Z,7.40
2018-05-26T06:29:50.631Z,7.70
2018-05-26T06:32:16.935Z,7.33
2018-05-26T06:34:43.984Z,7.10
2018-05-26T06:37:10.972Z,7.67
2018-05-26T06:39:37.275Z,7.30
2018-05-26T06:42:04.306Z,7.63
2018-05-26T06:44:32.043Z,7.40
2018-05-26T06:46:58.341Z,8.07
2018-05-26T06:49:24.668Z,7.03
2018-05-26T06:51:51.679Z,7.93
2018-05-26T06:54:17.981Z,8.20
2018-05-26T06:56:44.306Z,7.53
2018-05-26T06:59:10.608Z,7.67
2018-05-26T07:01:36.903Z,7.70
2018-05-26T07:04:03.251Z,7.00
2018-05-26T07:06:29.583Z,7.90
2018-05-26T07:08:55.886Z,8.10
2018-05-26T07:11:22.190Z,8.40
2018-05-26T07:13:48.533Z,7.67
2018-05-26T07:16:14.791Z,7.03
2018-05-26T07:18:41.847Z,8.00
2018-05-26T07:21:08.904Z,7.33
2018-05-26T07:23:35.933Z,7.23
2018-05-26T07:26:02.989Z,8.03
2018-05-26T07:28:29.974Z,7.23
2018-05-26T07:30:56.299Z,7.43
2018-05-26T07:33:22.605Z,7.27
2018-05-26T07:35:48.878Z,8.30
2018-05-26T07:38:15.162Z,8.67
2018-05-26T07:40:41.478Z,8.23
2018-05-26T07:43:07.742Z,8.17
2018-05-26T07:45:34.040Z,7.57
2018-05-26T07:48:00.333Z,8.47
2018-05-26T07:50:27.391Z,7.80
2018-05-26T07:52:54.456Z,8.07
2018-05-26T07:55:20.765Z,8.37
2018-05-26T07:57:47.167Z,6.47
2018-05-26T08:00:13.452Z,7.60
2018-05-26T08:02:39.761Z,7.90
2018-05-26T08:05:06.242Z,7.33
2018-05-26T08:07:32.510Z,7.80
2018-05-26T08:09:58.766Z,7.30
2018-05-26T08:12:25.119Z,7.77
2018-05-26T08:14:51.418Z,7.63
2018-05-26T08:17:17.791Z,7.37
2018-05-26T08:19:44.057Z,7.47
2018-05-26T08:22:11.061Z,6.93
2018-05-26T08:24:37.391Z,7.27
2018-05-26T08:27:03.727Z,7.60
2018-05-26T08:29:30.041Z,7.67
2018-05-26T08:31:56.365Z,7.00
2018-05-26T08:34:22.666Z,7.90
2018-05-26T08:36:48.974Z,7.30
2018-05-26T08:39:15.271Z,7.70
2018-05-26T08:41:42.349Z,7.70
2018-05-26T08:44:08.662Z,7.67
2018-05-26T08:46:34.991Z,8.43
2018-05-26T08:49:02.052Z,7.53
2018-05-26T08:51:28.418Z,7.33
2018-05-26T08:53:54.718Z,8.60
2018-05-26T08:56:21.769Z,7.20
2018-05-26T08:58:48.862Z,7.23
2018-05-26T09:01:15.192Z,7.33
2018-05-26T09:03:41.505Z,7.03
2018-05-26T09:06:07.870Z,6.13
2018-05-26T09:08:34.173Z,5.97
2018-05-26T09:11:01.231Z,6.37
2018-05-26T09:13:27.558Z,6.23
2018-05-26T09:15:54.654Z,6.00
2018-05-26T09:18:21.670Z,5.07
2018-05-26T09:20:47.956Z,5.60
2018-05-26T09:23:14.213Z,5.67
2018-05-26T09:25:41.962Z,6.07
2018-05-26T09:28:08.246Z,5.33
2018-05-26T09:30:35.285Z,5.70
2018-05-26T09:33:02.393Z,5.50
2018-05-26T09:35:28.681Z,5.33
2018-05-26T09:37:55.787Z,5.10
2018-05-26T09:40:22.129Z,5.03
2018-05-26T09:42:48.375Z,4.40
2018-05-26T09:45:14.666Z,5.13
2018-05-26T09:47:40.931Z,4.70
2018-05-26T09:50:07.207Z,4.90
2018-05-26T09:52:34.270Z,5.00
2018-05-26T09:55:01.290Z,4.33
2018-05-26T09:57:27.550Z,4.90
2018-05-26T09:59:54.561Z,4.33
2018-05-26T10:02:20.895Z,4.20
2018-05-26T10:04:47.146Z,4.17
2018-05-26T10:07:13.487Z,4.40
2018-05-26T10:09:39.738Z,4.30
2018-05-26T10:12:06.788Z,4.00
2018-05-26T10:14:33.122Z,4.13
2018-05-26T10:16:59.417Z,4.90
2018-05-26T10:19:25.740Z,4.30
2018-05-26T10:21:52.686Z,3.90
2018-05-26T10:24:18.970Z,4.00
2018-05-26T10:26:45.237Z,3.70
2018-05-26T10:29:12.285Z,3.47
2018-05-26T10:31:38.534Z,3.60
2018-05-26T10:34:05.573Z,3.63
2018-05-26T10:36:31.829Z,3.63
2018-05-26T10:38:58.067Z,3.77
2018-05-26T10:41:25.033Z,3.90
2018-05-26T10:43:51.340Z,4.17
2018-05-26T10:46:24.373Z,3.70
2018-05-26T10:48:50.671Z,3.67
2018-05-26T10:51:17.729Z,3.70
2018-05-26T10:53:44.747Z,3.50
2018-05-26T10:56:10.985Z,3.40
2018-05-26T10:58:37.265Z,3.40
2018-05-26T11:01:03.551Z,3.30
2018-05-26T11:03:29.837Z,3.12
2018-05-26T11:05:56.125Z,3.17
2018-05-26T11:08:22.400Z,3.05
2018-05-26T11:10:49.437Z,3.42
2018-05-26T11:13:16.517Z,3.67
2018-05-26T11:15:42.817Z,3.67
2018-05-26T11:18:09.125Z,3.70
2018-05-26T11:20:35.410Z,3.40
2018-05-26T11:23:02.422Z,3.67
2018-05-26T11:25:28.708Z,3.83
2018-05-26T11:27:55.017Z,3.60
2018-05-26T11:30:21.293Z,3.65
2018-05-26T11:32:47.598Z,3.87
2018-05-26T11:35:14.622Z,3.40
2018-05-26T11:37:40.891Z,3.53
2018-05-26T11:40:07.921Z,3.22
2018-05-26T11:42:34.214Z,3.35
2018-05-26T11:45:00.490Z,3.50
2018-05-26T11:47:26.760Z,3.75
2018-05-26T11:49:53.766Z,3.50
2018-05-26T11:52:20.097Z,3.50
2018-05-26T11:54:46.381Z,4.20
2018-05-26T11:57:13.405Z,3.80
2018-05-26T11:59:39.677Z,3.30
2018-05-26T12:02:05.966Z,3.83
2018-05-26T12:04:32.257Z,3.83
2018-05-26T12:06:58.526Z,3.20
2018-05-26T12:09:24.782Z,3.65
2018-05-26T12:11:51.072Z,3.20
2018-05-26T12:14:17.337Z,3.47
2018-05-26T12:16:43.617Z,3.40
2018-05-26T12:19:10.637Z,3.67
2018-05-26T12:21:36.905Z,3.83
2018-05-26T12:24:03.978Z,3.62
2018-05-26T12:26:30.299Z,3.37
2018-05-26T12:28:57.325Z,3.45
2018-05-26T12:31:23.601Z,3.55
2018-05-26T12:33:49.874Z,3.30
2018-05-26T12:36:16.161Z,3.53
2018-05-26T12:38:43.149Z,3.80
2018-05-26T12:41:09.390Z,3.62
2018-05-26T12:43:35.705Z,3.78
2018-05-26T12:46:01.993Z,3.45
2018-05-26T12:48:28.301Z,4.00
2018-05-26T12:50:54.608Z,3.83
2018-05-26T12:53:20.929Z,6.53
2018-05-26T12:55:47.956Z,3.20
2018-05-26T12:58:14.269Z,3.95
2018-05-26T13:00:40.497Z,3.40
2018-05-26T13:03:06.746Z,3.62
2018-05-26T13:05:32.997Z,3.22
2018-05-26T13:07:59.272Z,3.60
2018-05-26T13:10:25.624Z,3.60
2018-05-26T13:12:51.865Z,3.65
2018-05-26T13:15:20.632Z,3.90
2018-05-26T13:17:46.902Z,3.20
2018-05-26T13:20:13.165Z,3.87
2018-05-26T13:22:39.449Z,3.50
2018-05-26T13:25:05.774Z,3.70
2018-05-26T13:27:32.050Z,3.80
2018-05-26T13:29:58.403Z,4.13
2018-05-26T13:32:24.717Z,3.40
2018-05-26T13:34:51.024Z,5.40
2018-05-26T13:37:17.332Z,3.83
2018-05-26T13:39:44.326Z,3.60
2018-05-26T13:42:10.617Z,3.63
2018-05-26T13:44:37.685Z,3.73
2018-05-26T13:47:03.957Z,3.70
2018-05-26T13:49:30.259Z,3.77
2018-05-26T13:51:57.331Z,3.50
2018-05-26T13:54:24.277Z,4.13
2018-05-26T13:56:52.055Z,3.87
2018-05-26T13:59:18.585Z,3.70
2018-05-26T14:01:44.853Z,3.60
2018-05-26T14:04:11.226Z,3.50
2018-05-26T14:06:37.501Z,3.70
2018-05-26T14:09:04.805Z,4.07
2018-05-26T14:11:31.061Z,3.63
2018-05-26T14:13:57.297Z,3.83
2018-05-26T14:16:24.347Z,4.03
2018-05-26T14:18:50.619Z,3.93
2018-05-26T14:21:16.904Z,3.90
2018-05-26T14:23:43.126Z,3.90
2018-05-26T14:26:09.412Z,3.80
2018-05-26T14:28:35.765Z,3.50
2018-05-26T14:31:02.019Z,3.83
2018-05-26T14:33:28.331Z,4.07
2018-05-26T14:35:54.557Z,4.00
2018-05-26T14:38:20.835Z,3.97
2018-05-26T14:40:47.109Z,3.90
2018-05-26T14:43:14.125Z,4.10
2018-05-26T14:45:40.388Z,3.93
2018-05-26T14:48:06.656Z,3.77
2018-05-26T14:50:33.210Z,3.43
2018-05-26T14:52:59.541Z,3.80
2018-05-26T14:55:25.789Z,3.33
2018-05-26T14:57:52.044Z,3.60
2018-05-26T15:00:18.354Z,3.97
2018-05-26T15:02:44.633Z,3.80
2018-05-26T15:05:11.639Z,3.63
2018-05-26T15:07:37.898Z,3.53
2018-05-26T15:10:04.197Z,3.73
2018-05-26T15:12:30.449Z,3.80
2018-05-26T15:14:56.721Z,3.30
2018-05-26T15:17:22.974Z,3.87
2018-05-26T15:19:49.253Z,4.00
2018-05-26T15:22:15.506Z,4.87
2018-05-26T15:24:42.028Z,4.27
2018-05-26T15:27:08.286Z,4.10
2018-05-26T15:29:34.573Z,4.17
2018-05-26T15:32:01.604Z,3.87
2018-05-26T15:34:27.898Z,4.90
2018-05-26T15:36:54.161Z,3.80
2018-05-26T15:39:20.402Z,3.80
2018-05-26T15:41:46.673Z,4.03
2018-05-26T15:44:13.702Z,4.10
2018-05-26T15:46:40.015Z,4.33
2018-05-26T15:49:06.291Z,3.90
2018-05-26T15:51:33.356Z,3.90
2018-05-26T15:53:59.640Z,4.03
2018-05-26T15:56:25.913Z,4.27
2018-05-26T15:58:52.205Z,3.93
2018-05-26T16:01:18.542Z,4.27
2018-05-26T16:03:44.837Z,4.00
2018-05-26T16:06:11.102Z,4.43
2018-05-26T16:08:37.413Z,4.40
2018-05-26T16:11:03.669Z,4.00
2018-05-26T16:13:29.997Z,4.23
2018-05-26T16:15:56.285Z,3.83
2018-05-26T16:18:22.569Z,4.40
2018-05-26T16:20:48.857Z,4.27
2018-05-26T16:23:15.175Z,4.40
2018-05-26T16:25:41.461Z,4.63
2018-05-26T16:28:07.784Z,4.17
2018-05-26T16:30:34.798Z,4.30
2018-05-26T16:33:01.111Z,4.20
2018-05-26T16:35:27.409Z,4.40
2018-05-26T16:37:54.418Z,4.27
2018-05-26T16:40:20.725Z,4.10
2018-05-26T16:42:46.969Z,3.80
2018-05-26T16:45:13.303Z,4.50
2018-05-26T16:47:39.574Z,4.13
2018-05-26T16:50:05.874Z,4.20
2018-05-26T16:52:32.166Z,4.37
2018-05-26T16:54:59.199Z,4.20
2018-05-26T16:57:26.235Z,4.53
2018-05-26T16:59:52.562Z,4.10
2018-05-26T17:02:18.817Z,4.73
2018-05-26T17:04:45.081Z,7.43
2018-05-26T17:07:11.439Z,4.30
2018-05-26T17:09:37.811Z,4.70
2018-05-26T17:12:04.128Z,4.80
2018-05-26T17:14:30.472Z,4.90
2018-05-26T17:16:56.785Z,3.97
2018-05-26T17:19:23.348Z,4.60
2018-05-26T17:21:49.689Z,4.30
2018-05-26T17:24:15.997Z,4.30
2018-05-26T17:26:42.275Z,4.40
2018-05-26T17:29:08.601Z,4.47
2018-05-26T17:31:34.843Z,4.07
2018-05-26T17:34:01.117Z,4.30
2018-05-26T17:36:28.126Z,4.30
2018-05-26T17:38:54.431Z,4.30
2018-05-26T17:41:20.757Z,4.90
2018-05-26T17:43:47.801Z,4.90
2018-05-26T17:46:14.849Z,4.27
2018-05-26T17:48:41.926Z,4.30
2018-05-26T17:51:08.222Z,4.30
2018-05-26T17:53:35.309Z,4.57
2018-05-26T17:56:02.346Z,4.37
2018-05-26T17:58:28.653Z,4.60
2018-05-26T18:00:55.014Z,4.70
2018-05-26T18:03:21.289Z,4.50
2018-05-26T18:05:47.579Z,4.50
2018-05-26T18:08:13.952Z,4.10
2018-05-26T18:10:40.202Z,4.23
2018-05-26T18:13:06.538Z,4.50
2018-05-26T18:15:32.825Z,4.50
2018-05-26T18:17:59.129Z,5.10
2018-05-26T18:20:25.412Z,4.47
2018-05-26T18:22:52.446Z,4.27
2018-05-26T18:25:18.749Z,4.40
2018-05-26T18:27:46.886Z,4.63
2018-05-26T18:30:13.898Z,4.20
2018-05-26T18:32:40.310Z,4.23
2018-05-26T18:35:06.549Z,4.70
2018-05-26T18:37:32.797Z,4.10
2018-05-26T18:39:59.086Z,4.00
2018-05-26T18:42:26.080Z,4.50
2018-05-26T18:44:52.462Z,4.23
2018-05-26T18:47:18.881Z,4.23
2018-05-26T18:49:45.229Z,4.27
2018-05-26T18:52:11.489Z,4.80
2018-05-26T18:54:37.781Z,4.23
2018-05-26T18:57:04.060Z,4.00
2018-05-26T18:59:31.123Z,4.37
2018-05-26T19:01:57.532Z,5.00
2018-05-26T19:04:23.780Z,4.80
2018-05-26T19:06:50.836Z,4.50
2018-05-26T19:09:17.893Z,4.47
2018-05-26T19:11:44.985Z,4.87
2018-05-26T19:14:11.284Z,4.60
2018-05-26T19:16:38.337Z,4.93
2018-05-26T19:19:04.649Z,4.77
2018-05-26T19:21:31.951Z,5.60
2018-05-26T19:23:58.282Z,5.40
2018-05-26T19:26:24.582Z,5.17
2018-05-26T19:28:50.898Z,5.30
2018-05-26T19:31:17.197Z,4.80
2018-05-26T19:33:43.636Z,4.90
2018-05-26T19:36:09.932Z,4.63
2018-05-26T19:38:36.237Z,5.63
2018-05-26T19:41:02.550Z,4.83
2018-05-26T19:43:28.830Z,5.17
2018-05-26T19:45:55.133Z,5.20
2018-05-26T19:48:21.414Z,5.23
2018-05-26T19:50:47.697Z,5.63
2018-05-26T19:53:14.013Z,4.80
2018-05-26T19:55:40.309Z,4.70
2018-05-26T19:58:07.414Z,5.60
2018-05-26T20:00:33.702Z,5.50
2018-05-26T20:02:59.980Z,5.40
2018-05-26T20:05:26.325Z,5.27
2018-05-26T20:07:52.613Z,5.03
2018-05-26T20:10:18.899Z,5.40
2018-05-26T20:12:45.200Z,6.10
2018-05-26T20:15:11.474Z,5.27
2018-05-26T20:17:37.838Z,5.67
2018-05-26T20:20:04.157Z,5.50
2018-05-26T20:22:30.424Z,5.93
2018-05-26T20:24:56.686Z,6.40
2018-05-26T20:27:24.080Z,7.07
2018-05-26T20:29:50.381Z,7.30
2018-05-26T20:32:17.439Z,7.10
2018-05-26T20:34:43.768Z,6.93
2018-05-26T20:37:10.074Z,6.80
2018-05-26T20:39:36.395Z,6.50
2018-05-26T20:42:02.737Z,6.77
2018-05-26T20:44:28.962Z,6.70
2018-05-26T20:46:55.233Z,7.20
2018-05-26T20:49:21.545Z,6.37
2018-05-26T20:51:47.841Z,6.80
2018-05-26T20:54:14.094Z,8.47
2018-05-26T20:56:40.427Z,10.27
2018-05-26T20:59:06.721Z,10.43
2018-05-26T21:01:33.036Z,11.23
2018-05-26T21:03:59.338Z,10.80
2018-05-26T21:06:25.672Z,12.80
2018-05-26T21:08:52.017Z,10.60
2018-05-26T21:11:18.265Z,9.47
2018-05-26T21:13:44.599Z,9.43
2018-05-26T21:16:10.886Z,9.80
2018-05-26T21:18:37.131Z,10.13
2018-05-26T21:21:03.427Z,11.63
2018-05-26T21:23:29.699Z,12.10
2018-05-26T21:25:56.759Z,12.17
2018-05-26T21:28:23.017Z,12.07
2018-05-26T21:30:49.302Z,12.47
2018-05-26T21:33:15.560Z,12.73
2018-05-26T21:35:42.555Z,13.23
2018-05-26T21:38:08.857Z,13.03
2018-05-26T21:40:35.187Z,14.83
2018-05-26T21:43:02.194Z,14.20
2018-05-26T21:45:28.500Z,14.37
2018-05-26T21:47:54.806Z,12.33
2018-05-26T21:50:21.870Z,9.17
2018-05-26T21:52:48.187Z,8.33
2018-05-26T21:55:14.488Z,8.23
2018-05-26T21:57:40.798Z,8.80
2018-05-26T22:00:07.034Z,8.50
2018-05-26T22:02:33.335Z,8.77
2018-05-26T22:04:59.670Z,8.90
2018-05-26T22:07:26.689Z,8.87
2018-05-26T22:09:52.950Z,7.77
2018-05-26T22:12:20.005Z,9.00
2018-05-26T22:14:47.017Z,8.40
2018-05-26T22:17:13.345Z,7.83
2018-05-26T22:19:39.673Z,7.87
2018-05-26T22:22:05.941Z,7.90
2018-05-26T22:24:32.242Z,7.83
2018-05-26T22:26:58.521Z,6.93
2018-05-26T22:29:24.790Z,7.63
2018-05-26T22:31:51.829Z,7.47
2018-05-26T22:34:18.853Z,7.83
2018-05-26T22:36:45.134Z,7.47
2018-05-26T22:39:11.530Z,8.70
2018-05-26T22:41:37.798Z,7.83
2018-05-26T22:44:04.827Z,7.77
2018-05-26T22:46:31.136Z,7.80
2018-05-26T22:48:57.417Z,6.87
2018-05-26T22:51:24.405Z,7.97
2018-05-26T22:53:50.699Z,7.60
2018-05-26T22:56:17.782Z,8.07
2018-05-26T22:58:44.117Z,7.77
2018-05-26T23:01:10.394Z,6.47
2018-05-26T23:03:36.669Z,7.53
2018-05-26T23:06:03.069Z,7.87
2018-05-26T23:08:29.381Z,7.70
2018-05-26T23:10:55.718Z,6.37
2018-05-26T23:13:22.010Z,7.93
2018-05-26T23:15:48.846Z,8.20
2018-05-26T23:18:15.207Z,8.90
2018-05-26T23:20:42.253Z,9.87
2018-05-26T23:23:09.301Z,8.30
2018-05-26T23:25:36.354Z,10.13
2018-05-26T23:28:03.418Z,9.13
2018-05-26T23:30:30.460Z,8.47
2018-05-26T23:32:57.484Z,8.63
2018-05-26T23:35:23.774Z,9.17
2018-05-26T23:37:50.084Z,9.13
2018-05-26T23:40:17.134Z,8.70
2018-05-26T23:42:43.398Z,8.47
2018-05-26T23:45:09.761Z,8.87
2018-05-26T23:47:36.024Z,9.07
2018-05-26T23:50:02.334Z,9.43
2018-05-26T23:52:28.642Z,10.30
2018-05-26T23:54:54.952Z,8.60
2018-05-26T23:57:22.027Z,11.67
2018-05-26T23:59:49.042Z,10.27
